Terminal Aerodrome Forecast
Issued by NWS Charleston, WV

Current Version | Previous Version | Graphics & Text | Print | Product List | Glossary On
Versions: 1 2 3 4 5 6 7 8 9 10 11 12 13 14 15 16 17 18 19 20 21 22 23 24
185
FTUS41 KRLX 081516 AAA
TAFCRW
TAF AMD
KCRW 081516Z 0815/0912 19006KT 6SM -SHRA OVC023
     FM081900 21006KT 5SM -SHRA BR OVC008
     FM082100 23005KT 6SM -SHRA BR OVC012
     FM090300 25005KT 2SM -SHSN BR OVC008=

USA.gov is the U.S. government's official web portal to all federal, state and local government web resources and services.